createdAt,value
2022-08-09T00:00:51.949Z,96454.97
2022-08-09T00:04:05.506Z,96453.59
2022-08-09T00:06:18.064Z,96436.34
2022-08-09T00:08:51.902Z,96461.00
2022-08-09T00:11:24.834Z,96435.34
2022-08-09T00:13:56.542Z,96462.69
2022-08-09T00:16:36.608Z,96461.38
2022-08-09T00:19:09.437Z,96461.66
2022-08-09T00:21:43.203Z,96413.28
2022-08-09T00:24:24.961Z,96408.00
2022-08-09T00:26:57.464Z,96411.72
2022-08-09T00:30:10.302Z,96455.25
2022-08-09T00:32:25.689Z,96446.34
2022-08-09T00:34:55.806Z,96456.97
2022-08-09T00:37:24.345Z,96464.88
2022-08-09T00:40:12.596Z,96450.28
2022-08-09T00:44:09.846Z,96466.03
2022-08-09T00:45:31.057Z,96472.84
2022-08-09T00:48:06.421Z,96384.00
2022-08-09T00:50:37.864Z,96469.00
2022-08-09T00:53:10.495Z,96407.16
2022-08-09T00:56:05.001Z,96467.06
2022-08-09T00:58:31.515Z,96466.25
2022-08-09T01:01:00.905Z,96471.94
2022-08-09T01:03:45.673Z,96460.59
2022-08-09T01:06:25.564Z,96463.06
2022-08-09T01:09:18.769Z,96461.09
2022-08-09T01:11:59.959Z,96410.56
2022-08-09T01:14:34.731Z,96460.00
2022-08-09T01:17:10.968Z,96465.44
2022-08-09T01:19:57.265Z,96457.88
2022-08-09T01:23:05.628Z,96465.22
2022-08-09T01:26:02.633Z,96455.63
2022-08-09T01:28:34.294Z,96472.09
2022-08-09T01:31:07.584Z,96469.00
2022-08-09T01:33:40.480Z,96471.66
2022-08-09T01:36:13.518Z,96475.47
2022-08-09T01:38:46.429Z,96455.25
2022-08-09T01:41:18.269Z,96472.22
2022-08-09T01:43:58.981Z,96465.75
2022-08-09T01:46:31.686Z,96470.09
2022-08-09T01:49:09.626Z,96478.81
2022-08-09T01:51:42.724Z,96469.34
2022-08-09T01:54:14.836Z,96478.34
2022-08-09T01:56:47.127Z,96445.97
2022-08-09T01:59:23.124Z,96485.50
2022-08-09T02:01:59.169Z,96479.03
2022-08-09T02:04:31.857Z,96482.59
2022-08-09T02:07:17.873Z,96474.50
2022-08-09T02:10:08.357Z,96474.81
2022-08-09T02:12:39.866Z,96467.28
2022-08-09T02:15:16.754Z,96454.31
2022-08-09T02:18:09.412Z,96446.31
2022-08-09T02:20:42.204Z,96380.88
2022-08-09T02:23:19.579Z,96479.78
2022-08-09T02:25:55.808Z,96491.22
2022-08-09T02:28:34.437Z,96475.53
2022-08-09T02:31:09.001Z,96258.88
2022-08-09T02:34:06.463Z,96489.69
2022-08-09T02:36:32.809Z,96486.00
2022-08-09T02:39:06.811Z,96495.13
2022-08-09T02:41:46.198Z,96490.81
2022-08-09T02:44:30.394Z,96490.81
2022-08-09T02:47:05.371Z,96460.22
2022-08-09T02:49:38.902Z,96486.47
2022-08-09T02:52:13.747Z,96494.63
2022-08-09T02:54:54.171Z,96466.47
2022-08-09T02:57:25.137Z,96449.25
2022-08-09T03:00:20.722Z,96489.25
2022-08-09T03:03:00.392Z,96474.34
2022-08-09T03:05:34.750Z,96463.88
2022-08-09T03:08:06.090Z,96488.19
2022-08-09T03:10:37.475Z,96483.63
2022-08-09T03:13:08.404Z,96469.88
2022-08-09T03:16:04.136Z,96460.16
2022-08-09T03:18:31.318Z,96498.63
2022-08-09T03:21:03.466Z,96447.81
2022-08-09T03:23:33.299Z,96395.38
2022-08-09T03:26:04.888Z,96492.41
2022-08-09T03:28:36.181Z,96488.38
2022-08-09T03:31:10.507Z,96456.22
2022-08-09T03:33:54.067Z,96495.44
2022-08-09T03:36:27.528Z,96490.56
2022-08-09T03:38:57.469Z,96474.38
2022-08-09T03:41:29.957Z,96501.41
2022-08-09T03:44:15.570Z,96498.47
2022-08-09T03:46:44.448Z,96501.44
2022-08-09T03:49:19.393Z,96470.94
2022-08-09T03:51:58.755Z,96497.69
2022-08-09T03:54:32.364Z,96502.31
2022-08-09T03:57:04.282Z,96502.31
2022-08-09T03:59:53.319Z,96500.44
2022-08-09T04:02:30.516Z,96480.47
2022-08-09T04:05:05.801Z,96502.38
2022-08-09T04:07:52.620Z,96502.38
2022-08-09T04:10:28.364Z,96504.56
2022-08-09T04:13:00.834Z,96484.28
2022-08-09T04:15:52.000Z,96503.75
2022-08-09T04:18:21.211Z,96488.34
2022-08-09T04:20:52.782Z,96494.59
2022-08-09T04:23:23.458Z,96516.78
2022-08-09T04:25:54.325Z,96510.28
2022-08-09T04:28:32.972Z,96505.38
2022-08-09T04:31:08.362Z,96468.34
2022-08-09T04:33:47.311Z,96516.81
2022-08-09T04:36:25.516Z,96512.97
2022-08-09T04:38:54.766Z,96484.84
2022-08-09T04:41:32.014Z,96520.84
2022-08-09T04:44:06.467Z,96510.78
2022-08-09T04:46:59.386Z,96511.84
2022-08-09T04:49:40.252Z,96513.47
2022-08-09T04:52:18.580Z,96517.53
2022-08-09T04:54:54.260Z,96524.31
2022-08-09T04:57:24.155Z,96527.84
2022-08-09T04:59:54.655Z,96422.59
2022-08-09T05:02:24.206Z,96513.22
2022-08-09T05:04:56.437Z,96532.41
2022-08-09T05:07:29.210Z,96532.38
2022-08-09T05:10:01.871Z,96531.81
2022-08-09T05:12:33.232Z,96537.22
2022-08-09T05:15:11.364Z,96541.00
2022-08-09T05:18:38.648Z,96551.03
2022-08-09T05:20:30.454Z,96550.75
2022-08-09T05:23:54.061Z,96556.19
2022-08-09T05:25:51.031Z,96558.34
2022-08-09T05:28:20.875Z,96562.66
2022-08-09T05:30:51.587Z,96559.38
2022-08-09T05:33:26.476Z,96559.34
2022-08-09T05:36:02.269Z,96563.69
2022-08-09T05:38:32.470Z,96539.22
2022-08-09T05:41:01.014Z,96544.63
2022-08-09T05:43:31.956Z,96569.22
2022-08-09T05:46:01.412Z,96574.31
2022-08-09T05:48:32.922Z,96552.69
2022-08-09T05:51:42.547Z,96553.72
2022-08-09T05:53:57.648Z,96583.69
2022-08-09T05:56:28.456Z,96563.91
2022-08-09T05:58:59.473Z,96590.91
2022-08-09T06:01:34.029Z,96594.41
2022-08-09T06:04:12.120Z,96591.63
2022-08-09T06:06:46.733Z,96592.38
2022-08-09T06:09:23.230Z,96594.81
2022-08-09T06:12:09.721Z,96605.94
2022-08-09T06:14:38.735Z,96606.97
2022-08-09T06:17:10.080Z,96578.50
2022-08-09T06:19:39.208Z,96614.75
2022-08-09T06:22:15.438Z,96565.75
2022-08-09T06:24:46.109Z,96614.41
2022-08-09T06:27:17.421Z,96613.84
2022-08-09T06:29:48.170Z,96617.91
2022-08-09T06:32:59.157Z,96618.97
2022-08-09T06:35:16.089Z,96623.00
2022-08-09T06:37:53.396Z,96619.72
2022-08-09T06:40:35.408Z,96610.50
2022-08-09T06:43:10.362Z,96628.88
2022-08-09T06:46:07.723Z,96623.94
2022-08-09T06:48:31.057Z,96630.44
2022-08-09T06:51:01.345Z,96607.63
2022-08-09T06:53:38.470Z,96628.16
2022-08-09T06:56:09.709Z,96630.63
2022-08-09T07:00:46.652Z,96634.59
2022-08-09T07:01:53.673Z,96640.53
2022-08-09T07:04:19.712Z,96630.94
2022-08-09T07:06:53.066Z,96633.81
2022-08-09T07:09:56.439Z,96616.47
2022-08-09T07:12:13.574Z,96638.56
2022-08-09T07:14:51.205Z,96634.97
2022-08-09T07:17:22.776Z,96634.75
2022-08-09T07:19:55.493Z,96637.41
2022-08-09T07:22:34.920Z,96645.91
2022-08-09T07:25:09.614Z,96640.97
2022-08-09T07:27:42.624Z,96437.72
2022-08-09T07:30:25.298Z,96644.66
2022-08-09T07:32:55.020Z,96630.06
2022-08-09T07:35:25.785Z,96605.59
2022-08-09T07:37:59.626Z,96634.66
2022-08-09T07:40:37.540Z,96638.91
2022-08-09T07:43:19.218Z,96631.66
2022-08-09T07:46:02.123Z,96628.47
2022-08-09T07:48:31.808Z,96639.66
2022-08-09T07:51:09.987Z,96637.88
2022-08-09T07:54:06.623Z,96623.06
2022-08-09T07:56:44.826Z,96638.84
2022-08-09T07:59:34.616Z,96600.28
2022-08-09T08:02:09.433Z,96639.91
2022-08-09T08:04:39.073Z,96640.03
2022-08-09T08:07:15.488Z,96650.47
2022-08-09T08:10:07.699Z,96633.22
2022-08-09T08:12:42.684Z,96635.47
2022-08-09T08:15:17.185Z,96637.50
2022-08-09T08:17:54.651Z,96632.84
2022-08-09T08:20:27.214Z,96632.41
2022-08-09T08:23:03.593Z,96605.31
2022-08-09T08:25:44.751Z,96591.66
2022-08-09T08:28:15.593Z,96622.72
2022-08-09T08:30:48.883Z,96601.38
2022-08-09T08:33:23.629Z,96629.31
2022-08-09T08:36:00.014Z,96619.38
2022-08-09T08:38:31.957Z,96623.00
2022-08-09T08:41:01.787Z,96599.25
2022-08-09T08:43:36.188Z,96628.38
2022-08-09T08:46:32.730Z,96626.44
2022-08-09T08:49:00.318Z,96631.31
2022-08-09T08:51:41.459Z,96631.72
2022-08-09T08:54:20.580Z,96619.63
2022-08-09T08:56:59.285Z,96636.19
2022-08-09T08:59:46.749Z,96626.66
2022-08-09T09:02:31.751Z,96629.94
2022-08-09T09:05:05.868Z,96627.69
2022-08-09T09:07:42.689Z,96634.91
2022-08-09T09:10:12.333Z,96636.38
2022-08-09T09:12:44.337Z,96635.97
2022-08-09T09:15:13.303Z,96638.25
2022-08-09T09:17:58.740Z,96643.84
2022-08-09T09:20:27.710Z,96641.31
2022-08-09T09:23:01.706Z,96627.00
2022-08-09T09:26:04.598Z,96640.25
2022-08-09T09:29:02.152Z,96629.88
2022-08-09T09:31:17.299Z,96625.53
2022-08-09T09:34:18.417Z,96632.34
2022-08-09T09:36:53.988Z,96632.72
2022-08-09T09:39:25.850Z,96640.34
2022-08-09T09:42:24.725Z,96636.81
2022-08-09T09:44:59.500Z,96636.16
2022-08-09T09:47:32.537Z,96625.56
2022-08-09T09:50:14.207Z,96617.47
2022-08-09T09:52:53.430Z,96619.66
2022-08-09T09:55:32.100Z,96601.00
2022-08-09T09:58:19.085Z,96617.06
2022-08-09T10:00:55.241Z,96617.88
2022-08-09T10:03:58.247Z,96625.00
2022-08-09T10:06:32.197Z,96626.94
2022-08-09T10:09:22.865Z,96615.47
2022-08-09T10:12:15.002Z,96622.09
2022-08-09T10:14:48.700Z,96617.91
2022-08-09T10:17:39.179Z,96619.66
2022-08-09T10:20:27.730Z,96620.44
2022-08-09T10:23:17.312Z,96615.75
2022-08-09T10:26:08.165Z,96612.56
2022-08-09T10:28:39.096Z,96616.78
2022-08-09T10:34:08.590Z,96592.88
2022-08-09T10:36:42.271Z,96536.53
2022-08-09T10:39:15.487Z,96602.75
2022-08-09T10:41:45.053Z,96603.69
2022-08-09T10:44:13.666Z,96608.84
2022-08-09T10:47:00.902Z,96606.28
2022-08-09T10:49:51.290Z,96555.75
2022-08-09T10:52:36.372Z,96606.78
2022-08-09T10:55:25.768Z,96606.13
2022-08-09T10:58:00.447Z,96610.47
2022-08-09T11:00:51.158Z,96601.91
2022-08-09T11:03:51.834Z,96601.06
2022-08-09T11:06:24.785Z,96603.03
2022-08-09T11:08:54.105Z,96603.66
2022-08-09T11:11:24.888Z,96600.69
2022-08-09T11:14:32.076Z,96592.53
2022-08-09T11:17:00.961Z,96599.94
2022-08-09T11:20:10.716Z,96606.16
2022-08-09T11:23:10.214Z,96609.41
2022-08-09T11:25:47.924Z,96597.28
2022-08-09T11:28:54.688Z,96603.59
2022-08-09T11:31:49.213Z,96597.03
2022-08-09T11:34:29.990Z,96596.97
2022-08-09T11:37:02.147Z,96590.19
2022-08-09T11:39:38.201Z,96591.59
2022-08-09T11:42:14.960Z,96589.09
2022-08-09T11:44:49.285Z,96589.22
2022-08-09T11:47:18.378Z,96587.75
2022-08-09T11:50:56.227Z,96595.00
2022-08-09T11:53:58.692Z,96595.50
2022-08-09T11:56:42.730Z,96588.44
2022-08-09T11:59:30.564Z,96588.38
2022-08-09T12:02:34.431Z,96602.25
2022-08-09T12:04:58.021Z,96599.28
2022-08-09T12:07:34.410Z,96598.03
2022-08-09T12:10:37.988Z,96569.59
2022-08-09T12:13:03.819Z,96590.31
2022-08-09T12:15:52.110Z,96585.94
2022-08-09T12:18:30.342Z,96591.38
2022-08-09T12:21:03.479Z,96548.50
2022-08-09T12:24:06.565Z,96585.59
2022-08-09T12:26:44.883Z,96565.06
2022-08-09T12:29:52.296Z,96583.88
2022-08-09T12:32:27.768Z,96574.69
2022-08-09T12:35:03.106Z,96580.72
2022-08-09T12:37:44.237Z,96576.84
2022-08-09T12:40:20.611Z,96565.69
2022-08-09T12:42:50.815Z,96571.25
2022-08-09T12:45:34.204Z,96576.34
2022-08-09T12:48:20.227Z,96558.03
2022-08-09T12:51:00.265Z,96571.59
2022-08-09T12:53:37.139Z,96564.34
2022-08-09T12:56:43.160Z,96570.22
2022-08-09T12:59:10.211Z,96572.41
2022-08-09T13:01:46.938Z,96563.06
2022-08-09T13:04:33.180Z,96558.22
2022-08-09T13:07:19.413Z,96562.09
2022-08-09T13:09:55.156Z,96561.38
2022-08-09T13:12:30.782Z,96565.56
2022-08-09T13:15:09.795Z,96558.78
2022-08-09T13:18:03.126Z,96549.09
2022-08-09T13:22:33.731Z,96561.06
2022-08-09T13:24:16.029Z,96561.97
2022-08-09T13:26:37.623Z,96561.59
2022-08-09T13:29:09.071Z,96559.09
2022-08-09T13:32:19.085Z,96555.34
2022-08-09T13:34:46.329Z,96550.63
2022-08-09T13:37:51.167Z,96552.63
2022-08-09T13:41:53.917Z,96551.06
2022-08-09T13:42:55.495Z,96543.91
2022-08-09T13:46:07.397Z,96551.94
2022-08-09T13:48:14.540Z,96535.19
2022-08-09T13:50:44.734Z,96564.84
2022-08-09T13:53:17.064Z,96556.22
2022-08-09T13:55:47.888Z,96556.56
2022-08-09T13:58:18.152Z,96552.03
2022-08-09T14:00:52.680Z,96548.34
2022-08-09T14:04:03.575Z,96545.00
2022-08-09T14:06:19.337Z,96540.84
2022-08-09T14:08:54.820Z,96515.44
2022-08-09T14:11:24.826Z,96537.81
2022-08-09T14:14:22.972Z,96530.34
2022-08-09T14:16:42.457Z,96544.78
2022-08-09T14:19:11.593Z,96546.28
2022-08-09T14:21:40.530Z,96533.75
2022-08-09T14:24:22.394Z,96522.88
2022-08-09T14:27:01.366Z,96542.19
2022-08-09T14:30:35.834Z,96530.78
2022-08-09T14:32:28.659Z,96530.25
2022-08-09T14:34:59.498Z,96507.34
2022-08-09T14:37:28.757Z,96543.28
2022-08-09T14:40:17.806Z,96545.25
2022-08-09T14:42:58.474Z,96538.19
2022-08-09T14:46:55.436Z,96547.75
2022-08-09T14:48:16.424Z,96541.88
2022-08-09T14:50:45.669Z,96537.13
2022-08-09T14:53:14.731Z,96526.94
2022-08-09T14:55:47.730Z,96536.22
2022-08-09T14:58:18.081Z,96533.94
2022-08-09T15:00:48.200Z,96551.34
2022-08-09T15:03:20.479Z,96544.78
2022-08-09T15:05:55.544Z,96533.91
2022-08-09T15:08:30.160Z,96538.81
2022-08-09T15:11:00.817Z,96550.47
2022-08-09T15:13:56.173Z,96540.88
2022-08-09T15:16:24.073Z,96535.59
2022-08-09T15:18:59.677Z,96538.31
2022-08-09T15:22:01.215Z,96539.03
2022-08-09T15:24:23.374Z,96498.47
2022-08-09T15:26:55.769Z,96534.59
2022-08-09T15:30:56.297Z,96525.75
2022-08-09T15:32:29.524Z,96530.91
2022-08-09T15:35:00.710Z,96528.66
2022-08-09T15:38:10.953Z,96529.66
2022-08-09T15:40:32.143Z,96502.56
2022-08-09T15:43:02.610Z,96527.63
2022-08-09T15:45:51.766Z,96500.88
2022-08-09T15:48:28.885Z,96489.38
2022-08-09T15:54:19.299Z,96382.13
2022-08-09T15:56:52.642Z,96498.25
2022-08-09T15:59:23.688Z,96525.25
2022-08-09T16:01:54.363Z,96532.53
2022-08-09T16:04:25.350Z,96529.06
2022-08-09T16:06:58.850Z,96268.31
2022-08-09T16:09:32.510Z,96421.75
2022-08-09T16:12:20.272Z,96517.56
2022-08-09T16:14:49.233Z,96518.75
2022-08-09T16:17:22.125Z,96513.44
2022-08-09T16:20:03.956Z,96511.84
2022-08-09T16:22:34.693Z,96498.94
2022-08-09T16:25:05.539Z,96458.97
2022-08-09T16:27:36.031Z,96507.91
2022-08-09T16:30:06.584Z,96446.66
2022-08-09T16:32:54.466Z,96510.84
2022-08-09T16:35:53.113Z,96509.69
2022-08-09T16:38:14.028Z,96507.19
2022-08-09T16:40:48.081Z,96474.88
2022-08-09T16:43:16.698Z,96466.41
2022-08-09T16:45:47.194Z,96510.63
2022-08-09T16:48:40.064Z,96515.41
2022-08-09T16:51:13.816Z,96501.16
2022-08-09T16:54:08.848Z,96504.81
2022-08-09T16:56:32.984Z,96505.91
2022-08-09T16:59:06.570Z,96487.16
2022-08-09T17:01:43.807Z,96495.09
2022-08-09T17:04:28.422Z,96508.28
2022-08-09T17:08:46.138Z,96474.94
2022-08-09T17:09:47.895Z,96494.59
2022-08-09T17:12:17.750Z,96507.44
2022-08-09T17:14:49.277Z,96505.69
2022-08-09T17:17:26.860Z,96501.66
2022-08-09T17:20:29.669Z,96506.25
2022-08-09T17:22:52.173Z,96492.44
2022-08-09T17:25:23.384Z,96511.88
2022-08-09T17:27:54.674Z,96513.13
2022-08-09T17:30:26.530Z,96492.38
2022-08-09T17:33:04.618Z,96488.41
2022-08-09T17:35:40.886Z,96518.81
2022-08-09T17:38:29.271Z,96518.56
2022-08-09T17:41:00.963Z,96514.56
2022-08-09T17:43:33.486Z,96529.78
2022-08-09T17:46:06.853Z,96508.31
2022-08-09T17:48:38.763Z,96520.09
2022-08-09T17:51:18.364Z,96530.44
2022-08-09T17:53:53.071Z,96531.47
2022-08-09T17:56:27.856Z,96531.19
2022-08-09T17:59:09.625Z,96517.06
2022-08-09T18:02:07.559Z,96533.38
2022-08-09T18:04:33.697Z,96529.19
2022-08-09T18:07:07.527Z,96538.63
2022-08-09T18:09:41.298Z,96534.59
2022-08-09T18:12:17.869Z,96551.75
2022-08-09T18:14:54.387Z,96555.19
2022-08-09T18:17:27.288Z,96547.47
2022-08-09T18:20:53.737Z,96557.47
2022-08-09T18:23:07.280Z,96556.84
2022-08-09T18:25:50.563Z,96555.41
2022-08-09T18:30:41.573Z,96566.41
2022-08-09T18:31:11.579Z,96563.03
2022-08-09T18:33:40.625Z,96539.50
2022-08-09T18:36:25.268Z,96573.25
2022-08-09T18:39:00.905Z,96574.41
2022-08-09T18:41:34.441Z,96568.44
2022-08-09T18:44:13.152Z,96570.41
2022-08-09T18:46:47.502Z,96570.06
2022-08-09T18:49:20.619Z,96573.00
2022-08-09T18:51:57.849Z,96577.03
2022-08-09T18:54:30.184Z,96576.72
2022-08-09T18:57:05.511Z,96586.72
2022-08-09T18:59:37.459Z,96576.25
2022-08-09T19:02:18.269Z,96505.38
2022-08-09T19:05:04.103Z,96593.34
2022-08-09T19:07:36.301Z,96600.13
2022-08-09T19:10:15.528Z,96597.06
2022-08-09T19:12:53.089Z,96595.63
2022-08-09T19:15:30.414Z,96596.09
2022-08-09T19:17:59.297Z,96599.00
2022-08-09T19:20:34.139Z,96595.28
2022-08-09T19:23:07.367Z,96586.19
2022-08-09T19:26:01.041Z,96599.72
2022-08-09T19:28:28.790Z,96568.84
2022-08-09T19:30:57.796Z,96608.44
2022-08-09T19:33:26.725Z,96613.72
2022-08-09T19:35:57.323Z,96601.91
2022-08-09T19:38:26.501Z,96613.19
2022-08-09T19:40:59.937Z,96611.41
2022-08-09T19:44:00.667Z,96622.19
2022-08-09T19:46:35.267Z,96616.88
2022-08-09T19:50:07.771Z,96619.75
2022-08-09T19:51:55.919Z,96622.00
2022-08-09T19:54:25.072Z,96599.81
2022-08-09T19:56:55.338Z,96628.63
2022-08-09T19:59:57.214Z,96618.28
2022-08-09T20:02:17.111Z,96650.97
2022-08-09T20:05:02.707Z,96620.94
2022-08-09T20:08:00.168Z,96626.25
2022-08-09T20:10:36.294Z,96631.34
2022-08-09T20:13:10.505Z,96625.53
2022-08-09T20:16:37.863Z,96631.47
2022-08-09T20:18:28.493Z,96536.66
2022-08-09T20:20:58.210Z,96631.91
2022-08-09T20:23:38.487Z,96602.97
2022-08-09T20:26:08.198Z,96615.56
2022-08-09T20:28:48.044Z,96599.31
2022-08-09T20:31:17.446Z,96629.34
2022-08-09T20:33:46.786Z,96593.44
2022-08-09T20:36:21.101Z,96631.06
2022-08-09T20:39:28.151Z,96635.63
2022-08-09T20:41:44.382Z,96622.97
2022-08-09T20:44:26.857Z,96630.31
2022-08-09T20:46:58.289Z,96583.72
2022-08-09T20:49:28.632Z,96638.44
2022-08-09T20:51:57.896Z,96627.28
2022-08-09T20:54:29.130Z,96625.50
2022-08-09T20:56:58.586Z,96628.31
2022-08-09T21:00:20.726Z,96628.25
2022-08-09T21:02:18.671Z,96628.16
2022-08-09T21:05:57.571Z,96626.16
2022-08-09T21:07:40.751Z,96536.22
2022-08-09T21:10:13.166Z,96581.97
2022-08-09T21:15:34.466Z,96565.06
2022-08-09T21:18:22.455Z,96631.00
2022-08-09T21:20:54.587Z,96640.94
2022-08-09T21:23:26.535Z,96592.75
2022-08-09T21:26:15.565Z,96620.00
2022-08-09T21:28:55.545Z,96638.19
2022-08-09T21:31:49.383Z,96637.69
2022-08-09T21:34:21.126Z,96638.09
2022-08-09T21:36:57.914Z,96591.50
2022-08-09T21:39:28.183Z,96635.56
2022-08-09T21:42:11.116Z,96641.72
2022-08-09T21:44:40.082Z,96602.84
2022-08-09T21:47:18.307Z,96632.22
2022-08-09T21:49:48.314Z,96640.50
2022-08-09T21:52:20.395Z,96648.19
2022-08-09T21:54:59.530Z,96647.16
2022-08-09T21:57:39.311Z,96646.41
2022-08-09T22:00:26.050Z,96597.09
2022-08-09T22:02:59.096Z,96652.84
2022-08-09T22:05:35.416Z,96647.16
2022-08-09T22:08:05.816Z,96641.81
2022-08-09T22:10:34.348Z,96646.53
2022-08-09T22:13:07.513Z,96643.59
2022-08-09T22:15:40.702Z,96637.13
2022-08-09T22:18:12.058Z,96635.50
2022-08-09T22:20:41.541Z,96642.66
2022-08-09T22:23:13.552Z,96641.06
2022-08-09T22:26:06.103Z,96635.88
2022-08-09T22:28:33.306Z,96587.88
2022-08-09T22:31:02.693Z,96641.13
2022-08-09T22:33:42.534Z,96590.63
2022-08-09T22:36:19.409Z,96641.94
2022-08-09T22:38:49.227Z,96647.38
2022-08-09T22:41:19.517Z,96485.06
2022-08-09T22:44:01.896Z,96643.34
2022-08-09T22:48:13.804Z,96642.94
2022-08-09T22:49:23.505Z,96653.91
2022-08-09T22:51:57.369Z,96652.28
2022-08-09T22:54:27.427Z,96629.06
2022-08-09T22:56:58.583Z,96646.06
2022-08-09T22:59:57.131Z,96651.34
2022-08-09T23:02:20.365Z,96649.25
2022-08-09T23:04:53.400Z,96647.41
2022-08-09T23:08:21.911Z,96649.63
2022-08-09T23:10:30.533Z,96625.66
2022-08-09T23:12:59.189Z,96645.09
2022-08-09T23:15:28.586Z,96642.47
2022-08-09T23:17:58.180Z,96625.50
2022-08-09T23:20:29.279Z,96643.03
2022-08-09T23:22:57.923Z,96641.50
2022-08-09T23:25:26.546Z,96640.97
2022-08-09T23:27:57.418Z,96640.75
2022-08-09T23:30:51.527Z,96516.63
2022-08-09T23:33:21.201Z,96609.50
2022-08-09T23:36:06.328Z,96636.16
2022-08-09T23:38:48.216Z,96633.22
2022-08-09T23:41:29.006Z,96623.72
2022-08-09T23:43:59.140Z,96414.16
2022-08-09T23:46:28.070Z,96633.53
2022-08-09T23:48:56.662Z,96576.78
2022-08-09T23:51:27.065Z,96631.97
2022-08-09T23:54:02.923Z,96628.72
2022-08-09T23:56:52.776Z,96625.53
2022-08-09T23:59:21.370Z,96620.75
